GMFO Airport Information

Runway Information
Runway 06 Length 9843 ft width 148 ft
Elevation 1535 ft Threshold 0 ft Heading 58
Runway 24 Length 9843 ft Width 148 ft
Elevation 1493 ft Threshold 0 ft Heading 238
Airport Frequencies
Type APP Name OUJDA APP Frequency 136.6 MHZ
Type ATIS Name ATIS Frequency 121.6 MHZ
Type TWR Name OUJDA TWR Frequency 118.2 MHZ
Airport Navaids
Type NDB Name Oujda Frequency 371 KHZ
Type VOR-DME Name Oujda Frequency 117500 KHZ
Airport Weather Information & NOTAM

Deprecated: The each() function is deprecated. This message will be suppressed on further calls in /home/aerocargo/public_html/lib/functions.php on line 165
ADDS - METARS form results

(1729 UTC 20 January 2021)
Data provider http://aviationweather.gov/metar/data/
 
METAR text: GMFO 201700Z 21011KT CAVOK 17/M02 Q1017 NOSIG
Conditions at: GMFO (OUJDA/ANGADS , MA) observed 1700 UTC 20 January 2021
Temperature: 17.0°C (63°F)
Dewpoint: -2.0°C (28°F) [RH = 27%]
Pressure (altimeter): 30.03 inches Hg (1017.0 mb)
Winds: from the SSW (210 degrees) at 13 MPH (11 knots; 5.7 m/s)
Visibility: 6 or more miles (10+ km)
Ceiling: ceiling and visibility are OK
Clouds: unknown
Weather: no significant weather observed at this time

METAR text: GMFO 201630Z 20013KT 9999 FEW090 BKN130 18/M03 Q1017 NOSIG
Conditions at: GMFO (OUJDA/ANGADS , MA) observed 1630 UTC 20 January 2021
Temperature: 18.0°C (64°F)
Dewpoint: -3.0°C (27°F) [RH = 24%]
Pressure (altimeter): 30.03 inches Hg (1017.0 mb)
Winds: from the SSW (200 degrees) at 15 MPH (13 knots; 6.7 m/s)
Visibility: 6 or more miles (10+ km)
Ceiling: 13000 feet AGL
Clouds: few clouds at 9000 feet AGL
broken clouds at 13000 feet AGL
Weather: no significant weather observed at this time

Forecast for: GMFO (OUJDA/ANGADS , MA)
Text: TAF GMFO 201700Z 2018/2124 24012KT 9999 SCT040 BKN120
Forecast period: 1800 UTC 20 January 2021 to 0000 UTC 22 January 2021
Forecast type: FROM: standard forecast or significant change
Winds: from the WSW (240 degrees) at 14 MPH (12 knots; 6.2 m/s)
Visibility: 6 or more miles (10+ km)
Ceiling: 12000 feet AGL
Clouds: scattered clouds at 4000 feet AGL
broken clouds at 12000 feet AGL
Weather: no significant weather forecast for this period